Airfield :
LOGIN :

Register | Disclaimer

   EN    FR    IT 

 










Legend :    VFR   Marginal VFR   IFR   Intensive IFR   Very Intensive IFR
Visi :
Ceiling :
>= 8 km
>= 3000ft
5 to 8 km
1000 to 3000 ft
1500m to 5 km
500 to 1000 ft
800 to 1500m
200 to 500 ft
< 800m
< 200 ft
Symbols :   Thunderstorms  Fog  Heavy snow  Heavy precipitations  Wind > 20 kt
SIGMETs :     Misc.  Thunderstorms  Icing  Turbulence  Mountain Waves  Volcanic Ashes






- Airport Elevation : 52 ft
- IATA code : IOM


EGNS - Isle of Man

CURRENT METAR :
  • 191450Z 21025KT 9000 RA FEW004 BKN006 OVC023 10/09 Q0990 TEMPO 3000 BKN003

EXPIRED METARs :
  • 191420Z 21023KT 5000 RA FEW003 BKN006 OVC013 09/09 Q0991 TEMPO BKN003
  • 191350Z 21023KT 3200 RA SCT003 BKN004 OVC014 09/09 Q0992 TEMPO BKN003
  • 191320Z 21022KT 3500 RA SCT003 BKN005 OVC023 09/09 Q0992
  • 191250Z 21021KT 4000 RA FEW003 BKN005 OVC020 09/09 Q0993

TAF TAF EGNS
Valid from the 19 at 15:00 until the 19 at 22:00 UTC


191400Z 1915/1922 21023KT 8000 RA SCT003 BKN008
TEMPO 1915/1922 3000 +RA BKN003



MET'MAP, your aeronautical weather chart ! - Copyright ORBIFLY December 2007 - Disclaimer

ORBIFLY MET'MAP TEAM :

Programming & Development : Alexandra Zaïnal
Concept & original design : Baudouin d'Aumeries
Assistance for programming : Marc-Olivier Méhu
Technical & hardware support : Manuel Goepfert

Contact : metmap@orbifly.com




SOURCES & CREDITS :

   NOAA